Trinity, North Carolina
Current Conditions -  °F | °C
As of 3:54 PM on Wednesday 26 Nov 2014 (Local Time) from KGSO Reporting Station
Overcast Overcast  
Wind Chill: 42°   Ceiling: 1500
Heat Index: 44°   Visibility: 10mi
Dew Point: 39°   Wind: 5mph
Humidity: 82%   Direction: 310°NW
Pressure: 29.99"   Gusts: NA
Location:  35.89°N, 79.99°W
Report Text: KGSO 262054Z 31004KT 10SM OVC015 07/04 A2999 RMK AO2 SLP155 60000 T00670039 53004
Loading
Personal Weather Stations






























Interactive Weather Map New forecast layout! Learn more

10-Day Weather Forecast

Advertisements
Track Severe Weather on mobile